sensor_id;sensor_type;location;lat;lon;timestamp;pressure;altitude;pressure_sealevel;temperature;humidity
66560;BME280;53413;49.878;8.142;2023-05-24T00:00:41;100481.44;;;7.87;100.00
66560;BME280;53413;49.878;8.142;2023-05-24T00:03:07;100484.88;;;7.88;100.00
66560;BME280;53413;49.878;8.142;2023-05-24T00:05:32;100483.97;;;7.90;100.00
66560;BME280;53413;49.878;8.142;2023-05-24T00:08:02;100484.78;;;7.92;100.00
66560;BME280;53413;49.878;8.142;2023-05-24T00:10:27;100476.09;;;7.93;100.00
66560;BME280;53413;49.878;8.142;2023-05-24T00:12:52;100480.53;;;7.88;100.00
66560;BME280;53413;49.878;8.142;2023-05-24T00:15:18;100478.88;;;7.82;100.00
66560;BME280;53413;49.878;8.142;2023-05-24T00:17:43;100476.38;;;7.79;100.00
66560;BME280;53413;49.878;8.142;2023-05-24T00:20:09;100473.84;;;7.75;100.00
66560;BME280;53413;49.878;8.142;2023-05-24T00:22:36;100467.78;;;7.73;100.00
66560;BME280;53413;49.878;8.142;2023-05-24T00:25:02;100463.47;;;7.70;100.00
66560;BME280;53413;49.878;8.142;2023-05-24T00:27:27;100465.28;;;7.68;100.00
66560;BME280;53413;49.878;8.142;2023-05-24T00:29:52;100471.38;;;7.65;100.00
66560;BME280;53413;49.878;8.142;2023-05-24T00:32:18;100473.19;;;7.63;100.00
66560;BME280;53413;49.878;8.142;2023-05-24T00:34:43;100466.31;;;7.59;100.00
66560;BME280;53413;49.878;8.142;2023-05-24T00:37:08;100470.72;;;7.55;100.00
66560;BME280;53413;49.878;8.142;2023-05-24T00:39:34;100464.66;;;7.52;100.00
66560;BME280;53413;49.878;8.142;2023-05-24T00:41:59;100463.03;;;7.48;100.00
66560;BME280;53413;49.878;8.142;2023-05-24T00:44:25;100467.41;;;7.46;100.00
66560;BME280;53413;49.878;8.142;2023-05-24T00:46:50;100470.91;;;7.45;100.00
66560;BME280;53413;49.878;8.142;2023-05-24T00:49:16;100473.50;;;7.45;100.00
66560;BME280;53413;49.878;8.142;2023-05-24T00:51:41;100483.09;;;7.44;100.00
66560;BME280;53413;49.878;8.142;2023-05-24T00:54:07;100489.16;;;7.45;100.00
66560;BME280;53413;49.878;8.142;2023-05-24T00:56:32;100480.53;;;7.41;100.00
66560;BME280;53413;49.878;8.142;2023-05-24T00:58:58;100477.88;;;7.44;100.00
66560;BME280;53413;49.878;8.142;2023-05-24T01:01:24;100490.06;;;7.42;100.00
66560;BME280;53413;49.878;8.142;2023-05-24T01:03:55;100492.72;;;7.39;100.00
66560;BME280;53413;49.878;8.142;2023-05-24T01:06:22;100491.97;;;7.32;100.00
66560;BME280;53413;49.878;8.142;2023-05-24T01:09:10;100489.41;;;7.29;100.00
66560;BME280;53413;49.878;8.142;2023-05-24T01:11:42;100499.06;;;7.24;100.00
66560;BME280;53413;49.878;8.142;2023-05-24T01:22:06;100494.06;;;7.12;100.00
66560;BME280;53413;49.878;8.142;2023-05-24T01:25:06;100495.75;;;7.14;100.00
66560;BME280;53413;49.878;8.142;2023-05-24T01:27:36;100500.06;;;7.15;100.00
66560;BME280;53413;49.878;8.142;2023-05-24T01:30:03;100487.09;;;7.14;100.00
66560;BME280;53413;49.878;8.142;2023-05-24T01:32:29;100489.63;;;7.17;100.00
66560;BME280;53413;49.878;8.142;2023-05-24T01:34:54;100495.72;;;7.16;100.00
66560;BME280;53413;49.878;8.142;2023-05-24T01:37:20;100487.88;;;7.16;100.00
66560;BME280;53413;49.878;8.142;2023-05-24T01:39:46;100496.63;;;7.15;100.00
66560;BME280;53413;49.878;8.142;2023-05-24T01:42:22;100486.19;;;7.15;100.00
66560;BME280;53413;49.878;8.142;2023-05-24T01:48:00;100481.78;;;7.17;100.00
66560;BME280;53413;49.878;8.142;2023-05-24T01:50:37;100484.41;;;7.17;100.00
66560;BME280;53413;49.878;8.142;2023-05-24T01:53:08;100482.69;;;7.16;100.00
66560;BME280;53413;49.878;8.142;2023-05-24T01:55:37;100484.47;;;7.12;100.00
66560;BME280;53413;49.878;8.142;2023-05-24T01:58:05;100489.72;;;7.11;100.00
66560;BME280;53413;49.878;8.142;2023-05-24T02:00:31;100494.91;;;7.12;100.00
66560;BME280;53413;49.878;8.142;2023-05-24T02:02:57;100488.84;;;7.12;100.00
66560;BME280;53413;49.878;8.142;2023-05-24T02:05:23;100487.03;;;7.15;100.00
66560;BME280;53413;49.878;8.142;2023-05-24T02:07:49;100486.97;;;7.21;100.00
66560;BME280;53413;49.878;8.142;2023-05-24T02:10:15;100485.06;;;7.30;100.00
66560;BME280;53413;49.878;8.142;2023-05-24T02:12:41;100491.88;;;7.38;100.00
66560;BME280;53413;49.878;8.142;2023-05-24T02:15:06;100486.50;;;7.46;100.00
66560;BME280;53413;49.878;8.142;2023-05-24T02:17:32;100481.06;;;7.59;100.00
66560;BME280;53413;49.878;8.142;2023-05-24T02:20:01;100487.88;;;7.69;100.00
66560;BME280;53413;49.878;8.142;2023-05-24T02:22:27;100476.38;;;7.78;100.00
66560;BME280;53413;49.878;8.142;2023-05-24T02:24:53;100475.28;;;7.90;100.00
66560;BME280;53413;49.878;8.142;2023-05-24T02:27:19;100486.31;;;8.02;100.00
66560;BME280;53413;49.878;8.142;2023-05-24T02:29:44;100483.53;;;8.12;100.00
66560;BME280;53413;49.878;8.142;2023-05-24T02:32:10;100492.09;;;8.20;100.00
66560;BME280;53413;49.878;8.142;2023-05-24T02:34:35;100487.56;;;8.28;100.00
66560;BME280;53413;49.878;8.142;2023-05-24T02:37:00;100483.06;;;8.35;100.00
66560;BME280;53413;49.878;8.142;2023-05-24T02:39:26;100489.91;;;8.41;100.00
66560;BME280;53413;49.878;8.142;2023-05-24T02:41:51;100488.06;;;8.47;100.00
66560;BME280;53413;49.878;8.142;2023-05-24T02:44:17;100487.09;;;8.52;100.00
66560;BME280;53413;49.878;8.142;2023-05-24T02:46:42;100491.38;;;8.54;100.00
66560;BME280;53413;49.878;8.142;2023-05-24T02:49:08;100487.84;;;8.57;100.00
66560;BME280;53413;49.878;8.142;2023-05-24T02:51:34;100488.66;;;8.59;100.00
66560;BME280;53413;49.878;8.142;2023-05-24T02:54:01;100490.34;;;8.61;100.00
66560;BME280;53413;49.878;8.142;2023-05-24T02:56:27;100492.06;;;8.62;100.00
66560;BME280;53413;49.878;8.142;2023-05-24T02:58:53;100483.34;;;8.63;100.00
66560;BME280;53413;49.878;8.142;2023-05-24T03:01:20;100485.13;;;8.61;100.00
66560;BME280;53413;49.878;8.142;2023-05-24T03:03:46;100487.81;;;8.58;100.00
66560;BME280;53413;49.878;8.142;2023-05-24T03:06:11;100480.09;;;8.52;100.00
66560;BME280;53413;49.878;8.142;2023-05-24T03:08:38;100480.25;;;8.44;100.00
66560;BME280;53413;49.878;8.142;2023-05-24T03:11:03;100485.59;;;8.38;100.00
66560;BME280;53413;49.878;8.142;2023-05-24T03:13:29;100487.50;;;8.31;100.00
66560;BME280;53413;49.878;8.142;2023-05-24T03:15:54;100478.97;;;8.22;100.00
66560;BME280;53413;49.878;8.142;2023-05-24T03:18:19;100487.81;;;8.16;100.00
66560;BME280;53413;49.878;8.142;2023-05-24T03:20:45;100486.22;;;8.09;100.00
66560;BME280;53413;49.878;8.142;2023-05-24T03:23:10;100488.09;;;8.00;100.00
66560;BME280;53413;49.878;8.142;2023-05-24T03:25:36;100489.97;;;7.95;100.00
66560;BME280;53413;49.878;8.142;2023-05-24T03:28:02;100488.34;;;7.88;100.00
66560;BME280;53413;49.878;8.142;2023-05-24T03:30:27;100487.59;;;7.83;100.00
66560;BME280;53413;49.878;8.142;2023-05-24T03:32:53;100485.97;;;7.77;100.00
66560;BME280;53413;49.878;8.142;2023-05-24T03:35:18;100487.72;;;7.75;100.00
66560;BME280;53413;49.878;8.142;2023-05-24T03:37:44;100490.31;;;7.77;100.00
66560;BME280;53413;49.878;8.142;2023-05-24T03:40:10;100498.13;;;7.77;100.00
66560;BME280;53413;49.878;8.142;2023-05-24T03:42:35;100490.25;;;7.80;100.00
66560;BME280;53413;49.878;8.142;2023-05-24T03:45:01;100490.16;;;7.86;100.00
66560;BME280;53413;49.878;8.142;2023-05-24T03:47:26;100488.28;;;7.91;100.00
66560;BME280;53413;49.878;8.142;2023-05-24T03:49:51;100491.63;;;7.99;100.00
66560;BME280;53413;49.878;8.142;2023-05-24T03:52:17;100498.47;;;8.05;100.00
66560;BME280;53413;49.878;8.142;2023-05-24T03:54:42;100505.31;;;8.11;100.00
66560;BME280;53413;49.878;8.142;2023-05-24T03:57:07;100504.34;;;8.15;100.00
66560;BME280;53413;49.878;8.142;2023-05-24T03:59:33;100513.91;;;8.16;100.00
66560;BME280;53413;49.878;8.142;2023-05-24T04:01:58;100513.97;;;8.13;100.00
66560;BME280;53413;49.878;8.142;2023-05-24T04:04:23;100508.81;;;8.10;100.00
66560;BME280;53413;49.878;8.142;2023-05-24T04:06:49;100507.09;;;8.09;100.00
66560;BME280;53413;49.878;8.142;2023-05-24T04:09:14;100510.56;;;8.11;100.00
66560;BME280;53413;49.878;8.142;2023-05-24T04:11:40;100515.69;;;8.15;100.00
66560;BME280;53413;49.878;8.142;2023-05-24T04:14:05;100516.50;;;8.18;100.00
66560;BME280;53413;49.878;8.142;2023-05-24T04:16:31;100513.91;;;8.16;100.00
66560;BME280;53413;49.878;8.142;2023-05-24T04:18:59;100515.63;;;8.17;100.00
66560;BME280;53413;49.878;8.142;2023-05-24T04:21:27;100508.69;;;8.16;100.00
66560;BME280;53413;49.878;8.142;2023-05-24T04:23:53;100510.41;;;8.17;100.00
66560;BME280;53413;49.878;8.142;2023-05-24T04:26:19;100507.84;;;8.15;100.00
66560;BME280;53413;49.878;8.142;2023-05-24T04:28:45;100513.91;;;8.16;100.00
66560;BME280;53413;49.878;8.142;2023-05-24T04:31:10;100502.53;;;8.20;100.00
66560;BME280;53413;49.878;8.142;2023-05-24T04:33:36;100506.81;;;8.23;100.00
66560;BME280;53413;49.878;8.142;2023-05-24T04:36:03;100512.00;;;8.24;100.00
66560;BME280;53413;49.878;8.142;2023-05-24T04:38:28;100508.41;;;8.30;100.00
66560;BME280;53413;49.878;8.142;2023-05-24T04:40:59;100504.75;;;8.39;100.00
66560;BME280;53413;49.878;8.142;2023-05-24T04:43:25;100502.84;;;8.47;100.00
66560;BME280;53413;49.878;8.142;2023-05-24T04:45:53;100500.91;;;8.57;100.00
66560;BME280;53413;49.878;8.142;2023-05-24T04:48:20;100505.13;;;8.64;100.00
66560;BME280;53413;49.878;8.142;2023-05-24T04:50:49;100510.13;;;8.73;100.00
66560;BME280;53413;49.878;8.142;2023-05-24T04:53:14;100509.06;;;8.82;100.00
66560;BME280;53413;49.878;8.142;2023-05-24T04:55:41;100518.34;;;8.96;100.00
66560;BME280;53413;49.878;8.142;2023-05-24T04:58:06;100519.78;;;9.07;100.00
66560;BME280;53413;49.878;8.142;2023-05-24T05:00:31;100525.66;;;9.17;100.00
66560;BME280;53413;49.878;8.142;2023-05-24T05:02:57;100526.34;;;9.26;100.00
66560;BME280;53413;49.878;8.142;2023-05-24T05:05:22;100518.25;;;9.35;100.00
66560;BME280;53413;49.878;8.142;2023-05-24T05:07:48;100529.31;;;9.46;100.00
66560;BME280;53413;49.878;8.142;2023-05-24T05:10:13;100523.81;;;9.57;100.00
66560;BME280;53413;49.878;8.142;2023-05-24T05:12:39;100524.34;;;9.70;100.00
66560;BME280;53413;49.878;8.142;2023-05-24T05:15:04;100529.28;;;9.81;100.00
66560;BME280;53413;49.878;8.142;2023-05-24T05:17:30;100533.31;;;9.93;100.00
66560;BME280;53413;49.878;8.142;2023-05-24T05:19:55;100541.78;;;10.02;100.00
66560;BME280;53413;49.878;8.142;2023-05-24T05:22:21;100535.28;;;10.17;100.00
66560;BME280;53413;49.878;8.142;2023-05-24T05:24:46;100536.63;;;10.31;100.00
66560;BME280;53413;49.878;8.142;2023-05-24T05:27:11;100541.69;;;10.39;100.00
66560;BME280;53413;49.878;8.142;2023-05-24T05:29:37;100539.47;;;10.55;100.00
66560;BME280;53413;49.878;8.142;2023-05-24T05:32:02;100532.81;;;10.73;100.00
66560;BME280;53413;49.878;8.142;2023-05-24T05:34:27;62379.06;;;-147.87;100.00
66560;BME280;53413;49.878;8.142;2023-05-24T05:36:53;100531.31;;;10.94;100.00
66560;BME280;53413;49.878;8.142;2023-05-24T05:39:18;100529.94;;;11.11;100.00
66560;BME280;53413;49.878;8.142;2023-05-24T05:41:43;100527.03;;;11.45;99.95
66560;BME280;53413;49.878;8.142;2023-05-24T05:44:11;100522.03;;;15.25;87.64
66560;BME280;53413;49.878;8.142;2023-05-24T05:46:38;100511.34;;;20.44;61.36
66560;BME280;53413;49.878;8.142;2023-05-24T05:49:04;100504.00;;;24.20;48.42
66560;BME280;53413;49.878;8.142;2023-05-24T05:51:29;100506.03;;;26.88;41.99
66560;BME280;53413;49.878;8.142;2023-05-24T05:53:55;100511.16;;;28.66;37.40
66560;BME280;53413;49.878;8.142;2023-05-24T05:56:21;100521.91;;;30.15;33.09
66560;BME280;53413;49.878;8.142;2023-05-24T05:58:46;100530.47;;;30.98;32.39
66560;BME280;53413;49.878;8.142;2023-05-24T06:01:11;100538.84;;;31.73;30.09
66560;BME280;53413;49.878;8.142;2023-05-24T06:03:37;100535.06;;;32.64;28.65
66560;BME280;53413;49.878;8.142;2023-05-24T06:06:02;100538.31;;;33.18;28.73
66560;BME280;53413;49.878;8.142;2023-05-24T06:08:27;100543.53;;;33.63;27.76
66560;BME280;53413;49.878;8.142;2023-05-24T06:10:55;100538.66;;;34.21;26.47
66560;BME280;53413;49.878;8.142;2023-05-24T06:13:20;100537.38;;;33.82;26.34
66560;BME280;53413;49.878;8.142;2023-05-24T06:15:45;100542.50;;;33.35;26.18
66560;BME280;53413;49.878;8.142;2023-05-24T06:18:11;100544.31;;;32.69;25.71
66560;BME280;53413;49.878;8.142;2023-05-24T06:20:37;100541.09;;;33.24;25.79
66560;BME280;53413;49.878;8.142;2023-05-24T06:23:03;100543.97;;;33.66;25.57
66560;BME280;53413;49.878;8.142;2023-05-24T06:25:29;100544.53;;;33.33;25.32
66560;BME280;53413;49.878;8.142;2023-05-24T06:27:55;100543.22;;;33.29;25.31
66560;BME280;53413;49.878;8.142;2023-05-24T06:30:20;100540.94;;;34.11;24.73
66560;BME280;53413;49.878;8.142;2023-05-24T06:32:46;100547.38;;;33.75;25.12
66560;BME280;53413;49.878;8.142;2023-05-24T06:35:11;100549.41;;;34.98;24.35
66560;BME280;53413;49.878;8.142;2023-05-24T06:37:36;100554.56;;;36.28;23.17
66560;BME280;53413;49.878;8.142;2023-05-24T06:40:04;100551.91;;;37.74;22.19
66560;BME280;53413;49.878;8.142;2023-05-24T06:42:30;100551.91;;;37.74;21.03
66560;BME280;53413;49.878;8.142;2023-05-24T06:44:56;100557.63;;;36.97;21.68
66560;BME280;53413;49.878;8.142;2023-05-24T06:47:21;100554.28;;;37.20;21.07
66560;BME280;53413;49.878;8.142;2023-05-24T06:49:46;100547.25;;;37.31;21.32
66560;BME280;53413;49.878;8.142;2023-05-24T06:52:13;100553.34;;;38.40;20.66
66560;BME280;53413;49.878;8.142;2023-05-24T06:54:38;100544.06;;;39.02;20.28
66560;BME280;53413;49.878;8.142;2023-05-24T06:57:03;100554.50;;;36.41;21.53
66560;BME280;53413;49.878;8.142;2023-05-24T06:59:29;100550.03;;;33.18;23.35
66560;BME280;53413;49.878;8.142;2023-05-24T07:01:56;100545.69;;;33.45;23.62
66560;BME280;53413;49.878;8.142;2023-05-24T07:04:24;100544.94;;;34.77;22.47
66560;BME280;53413;49.878;8.142;2023-05-24T07:06:51;100550.72;;;36.42;21.86
66560;BME280;53413;49.878;8.142;2023-05-24T07:09:17;100547.81;;;37.47;20.41
66560;BME280;53413;49.878;8.142;2023-05-24T07:11:43;100539.75;;;37.96;20.66
66560;BME280;53413;49.878;8.142;2023-05-24T07:14:08;100537.38;;;38.98;19.50
66560;BME280;53413;49.878;8.142;2023-05-24T07:16:35;100539.28;;;39.09;18.81
66560;BME280;53413;49.878;8.142;2023-05-24T07:19:00;100535.91;;;38.34;19.56
66560;BME280;53413;49.878;8.142;2023-05-24T07:21:26;100535.28;;;38.50;19.57
66560;BME280;53413;49.878;8.142;2023-05-24T07:23:51;100538.09;;;38.74;19.68
66560;BME280;53413;49.878;8.142;2023-05-24T07:26:17;100537.88;;;39.18;18.54
66560;BME280;53413;49.878;8.142;2023-05-24T07:28:42;100536.94;;;39.96;18.20
66560;BME280;53413;49.878;8.142;2023-05-24T07:31:08;100531.75;;;40.98;18.26
66560;BME280;53413;49.878;8.142;2023-05-24T07:33:37;100550.03;;;42.39;17.13
66560;BME280;53413;49.878;8.142;2023-05-24T07:36:04;100537.91;;;41.74;17.36
66560;BME280;53413;49.878;8.142;2023-05-24T07:38:30;100533.53;;;41.38;17.22
66560;BME280;53413;49.878;8.142;2023-05-24T07:40:58;100536.75;;;41.69;17.08
66560;BME280;53413;49.878;8.142;2023-05-24T07:43:24;100525.13;;;41.28;17.60
66560;BME280;53413;49.878;8.142;2023-05-24T07:45:51;100530.63;;;41.84;17.53
66560;BME280;53413;49.878;8.142;2023-05-24T07:48:16;100529.41;;;42.42;16.38
66560;BME280;53413;49.878;8.142;2023-05-24T07:50:41;100526.38;;;42.98;16.21
66560;BME280;53413;49.878;8.142;2023-05-24T07:53:07;100528.63;;;41.58;16.68
66560;BME280;53413;49.878;8.142;2023-05-24T07:55:32;100527.59;;;40.96;17.13
66560;BME280;53413;49.878;8.142;2023-05-24T07:57:57;100530.88;;;41.61;16.91
66560;BME280;53413;49.878;8.142;2023-05-24T08:00:23;100541.13;;;41.31;16.66
66560;BME280;53413;49.878;8.142;2023-05-24T08:02:49;100544.03;;;41.59;17.04
66560;BME280;53413;49.878;8.142;2023-05-24T08:05:14;100548.63;;;41.36;16.96
66560;BME280;53413;49.878;8.142;2023-05-24T08:07:40;100548.31;;;41.49;16.84
66560;BME280;53413;49.878;8.142;2023-05-24T08:10:07;100545.22;;;41.85;16.92
66560;BME280;53413;49.878;8.142;2023-05-24T08:12:33;100557.03;;;42.47;15.94
66560;BME280;53413;49.878;8.142;2023-05-24T08:14:59;100553.38;;;42.96;16.11
66560;BME280;53413;49.878;8.142;2023-05-24T08:17:25;100550.38;;;43.30;16.10
66560;BME280;53413;49.878;8.142;2023-05-24T08:19:50;100561.06;;;44.12;16.02
66560;BME280;53413;49.878;8.142;2023-05-24T08:22:16;100560.38;;;44.69;14.92
66560;BME280;53413;49.878;8.142;2023-05-24T08:24:41;100550.59;;;44.20;14.84
66560;BME280;53413;49.878;8.142;2023-05-24T08:27:06;100550.09;;;43.32;15.81
66560;BME280;53413;49.878;8.142;2023-05-24T08:29:33;100559.00;;;42.52;16.08
66560;BME280;53413;49.878;8.142;2023-05-24T08:31:58;100551.81;;;42.51;16.49
66560;BME280;53413;49.878;8.142;2023-05-24T08:34:24;100540.16;;;43.31;16.10
66560;BME280;53413;49.878;8.142;2023-05-24T08:36:50;100542.53;;;44.08;15.94
66560;BME280;53413;49.878;8.142;2023-05-24T08:39:16;100544.53;;;44.33;15.02
66560;BME280;53413;49.878;8.142;2023-05-24T08:41:42;100536.63;;;44.78;15.19
66560;BME280;53413;49.878;8.142;2023-05-24T08:44:07;100528.91;;;45.32;14.73
66560;BME280;53413;49.878;8.142;2023-05-24T08:46:34;100531.75;;;45.98;14.26
66560;BME280;53413;49.878;8.142;2023-05-24T08:49:00;100535.50;;;45.46;14.22
66560;BME280;53413;49.878;8.142;2023-05-24T08:51:28;100533.56;;;44.49;14.78
66560;BME280;53413;49.878;8.142;2023-05-24T08:53:53;100537.94;;;44.39;14.77
66560;BME280;53413;49.878;8.142;2023-05-24T08:56:20;100527.00;;;43.96;15.13
66560;BME280;53413;49.878;8.142;2023-05-24T08:58:49;100531.84;;;40.69;16.47
66560;BME280;53413;49.878;8.142;2023-05-24T09:01:15;100531.19;;;36.52;18.95
66560;BME280;53413;49.878;8.142;2023-05-24T09:03:42;100540.31;;;32.50;22.00
66560;BME280;53413;49.878;8.142;2023-05-24T09:06:09;100538.19;;;29.90;25.20
66560;BME280;53413;49.878;8.142;2023-05-24T09:08:37;100552.06;;;27.92;26.99
66560;BME280;53413;49.878;8.142;2023-05-24T09:11:04;100563.28;;;25.95;29.67
66560;BME280;53413;49.878;8.142;2023-05-24T09:13:32;100562.44;;;24.46;31.57
66560;BME280;53413;49.878;8.142;2023-05-24T09:15:58;100568.34;;;23.45;32.90
66560;BME280;53413;49.878;8.142;2023-05-24T09:18:24;100567.09;;;22.72;33.99
66560;BME280;53413;49.878;8.142;2023-05-24T09:20:49;100557.38;;;22.37;34.67
66560;BME280;53413;49.878;8.142;2023-05-24T09:23:16;100563.81;;;22.35;34.87
66560;BME280;53413;49.878;8.142;2023-05-24T09:25:45;100553.53;;;22.53;34.76
66560;BME280;53413;49.878;8.142;2023-05-24T09:28:16;100568.78;;;22.39;34.75
66560;BME280;53413;49.878;8.142;2023-05-24T09:30:43;100568.06;;;22.26;35.55
66560;BME280;53413;49.878;8.142;2023-05-24T09:33:08;100566.09;;;21.94;35.73
66560;BME280;53413;49.878;8.142;2023-05-24T09:35:35;100572.22;;;21.47;35.90
66560;BME280;53413;49.878;8.142;2023-05-24T09:38:01;100563.56;;;22.38;35.18
66560;BME280;53413;49.878;8.142;2023-05-24T09:40:29;100561.31;;;24.79;32.35
66560;BME280;53413;49.878;8.142;2023-05-24T09:43:08;100553.50;;;28.04;28.37
66560;BME280;53413;49.878;8.142;2023-05-24T09:45:46;100546.63;;;30.51;25.97
66560;BME280;53413;49.878;8.142;2023-05-24T09:48:14;100553.91;;;31.90;23.87
66560;BME280;53413;49.878;8.142;2023-05-24T09:50:41;100547.25;;;32.08;24.18
66560;BME280;53413;49.878;8.142;2023-05-24T09:53:07;100534.59;;;32.97;23.55
66560;BME280;53413;49.878;8.142;2023-05-24T09:55:36;100538.31;;;33.61;22.82
66560;BME280;53413;49.878;8.142;2023-05-24T09:58:08;100539.38;;;33.95;22.12
66560;BME280;53413;49.878;8.142;2023-05-24T10:00:38;100537.84;;;34.70;21.26
66560;BME280;53413;49.878;8.142;2023-05-24T10:03:06;100539.56;;;34.97;20.93
66560;BME280;53413;49.878;8.142;2023-05-24T10:05:33;100531.00;;;35.14;21.27
66560;BME280;53413;49.878;8.142;2023-05-24T10:08:00;100536.91;;;35.58;20.60
66560;BME280;53413;49.878;8.142;2023-05-24T10:10:27;100528.69;;;35.78;20.39
66560;BME280;53413;49.878;8.142;2023-05-24T10:12:54;100526.06;;;34.62;21.36
66560;BME280;53413;49.878;8.142;2023-05-24T10:15:20;100528.03;;;32.54;22.59
66560;BME280;53413;49.878;8.142;2023-05-24T10:17:45;100519.94;;;30.08;24.38
66560;BME280;53413;49.878;8.142;2023-05-24T10:20:11;100534.41;;;27.89;26.63
66560;BME280;53413;49.878;8.142;2023-05-24T10:22:40;100521.69;;;26.09;28.29
66560;BME280;53413;49.878;8.142;2023-05-24T10:25:07;100531.97;;;24.78;30.11
66560;BME280;53413;49.878;8.142;2023-05-24T10:27:37;100537.66;;;23.91;32.35
66560;BME280;53413;49.878;8.142;2023-05-24T10:32:32;100538.34;;;22.42;33.90
66560;BME280;53413;49.878;8.142;2023-05-24T10:35:00;100543.41;;;21.99;35.05
66560;BME280;53413;49.878;8.142;2023-05-24T10:37:26;100543.16;;;21.91;36.34
66560;BME280;53413;49.878;8.142;2023-05-24T10:39:52;100547.03;;;21.87;35.72
66560;BME280;53413;49.878;8.142;2023-05-24T10:42:17;100533.81;;;21.97;36.39
66560;BME280;53413;49.878;8.142;2023-05-24T10:44:43;100540.03;;;22.09;35.72
66560;BME280;53413;49.878;8.142;2023-05-24T10:47:09;100526.91;;;21.83;36.20
66560;BME280;53413;49.878;8.142;2023-05-24T10:49:36;100536.25;;;21.89;36.29
66560;BME280;53413;49.878;8.142;2023-05-24T10:52:08;100526.75;;;21.84;36.00
66560;BME280;53413;49.878;8.142;2023-05-24T10:54:33;100529.34;;;22.09;35.26
66560;BME280;53413;49.878;8.142;2023-05-24T10:57:01;100534.09;;;22.28;35.24
66560;BME280;53413;49.878;8.142;2023-05-24T10:59:34;100522.91;;;22.23;34.79
66560;BME280;53413;49.878;8.142;2023-05-24T11:02:08;100522.44;;;22.06;34.59
66560;BME280;53413;49.878;8.142;2023-05-24T11:04:40;100514.88;;;21.66;35.50
66560;BME280;53413;49.878;8.142;2023-05-24T11:07:08;100509.34;;;21.09;35.83
66560;BME280;53413;49.878;8.142;2023-05-24T11:09:35;100514.78;;;20.83;37.04
66560;BME280;53413;49.878;8.142;2023-05-24T11:12:07;100512.44;;;21.03;36.12
66560;BME280;53413;49.878;8.142;2023-05-24T11:14:35;100515.97;;;21.39;35.26
66560;BME280;53413;49.878;8.142;2023-05-24T11:17:02;100511.06;;;21.57;34.77
66560;BME280;53413;49.878;8.142;2023-05-24T11:19:36;100503.03;;;21.93;35.25
66560;BME280;53413;49.878;8.142;2023-05-24T11:22:06;100511.22;;;21.67;35.77
66560;BME280;53413;49.878;8.142;2023-05-24T11:24:32;100517.38;;;21.20;35.98
66560;BME280;53413;49.878;8.142;2023-05-24T11:26:58;100511.31;;;20.94;36.56
66560;BME280;53413;49.878;8.142;2023-05-24T11:29:24;100506.75;;;21.32;35.88
66560;BME280;53413;49.878;8.142;2023-05-24T11:31:52;100507.38;;;21.35;35.99
66560;BME280;53413;49.878;8.142;2023-05-24T11:34:19;100498.38;;;21.01;35.96
66560;BME280;53413;49.878;8.142;2023-05-24T11:36:45;100505.94;;;21.07;36.31
66560;BME280;53413;49.878;8.142;2023-05-24T11:39:12;100503.31;;;20.94;36.83
66560;BME280;53413;49.878;8.142;2023-05-24T11:41:38;100501.34;;;21.09;35.51
66560;BME280;53413;49.878;8.142;2023-05-24T11:44:05;100499.09;;;21.63;35.29
66560;BME280;53413;49.878;8.142;2023-05-24T11:46:31;100486.50;;;22.22;34.03
66560;BME280;53413;49.878;8.142;2023-05-24T11:48:57;100505.16;;;22.67;33.90
66560;BME280;53413;49.878;8.142;2023-05-24T11:51:30;100498.50;;;22.27;34.13
66560;BME280;53413;49.878;8.142;2023-05-24T11:53:56;100488.56;;;22.29;33.91
66560;BME280;53413;49.878;8.142;2023-05-24T11:56:23;100493.28;;;22.60;34.09
66560;BME280;53413;49.878;8.142;2023-05-24T11:58:49;100482.16;;;23.20;32.94
66560;BME280;53413;49.878;8.142;2023-05-24T12:01:27;100477.94;;;23.39;32.80
66560;BME280;53413;49.878;8.142;2023-05-24T12:03:53;100472.22;;;23.95;31.22
66560;BME280;53413;49.878;8.142;2023-05-24T12:06:18;100468.44;;;24.58;31.17
66560;BME280;53413;49.878;8.142;2023-05-24T12:08:44;100473.16;;;24.96;30.34
66560;BME280;53413;49.878;8.142;2023-05-24T12:11:10;100472.44;;;25.43;30.89
66560;BME280;53413;49.878;8.142;2023-05-24T12:13:36;100462.25;;;25.36;30.66
66560;BME280;53413;49.878;8.142;2023-05-24T12:16:02;100461.94;;;24.51;30.17
66560;BME280;53413;49.878;8.142;2023-05-24T12:18:27;100471.72;;;23.90;31.54
66560;BME280;53413;49.878;8.142;2023-05-24T12:20:53;100480.00;;;22.81;32.99
66560;BME280;53413;49.878;8.142;2023-05-24T12:23:25;100469.66;;;22.10;34.08
66560;BME280;53413;49.878;8.142;2023-05-24T12:25:58;100475.81;;;22.44;34.92
66560;BME280;53413;49.878;8.142;2023-05-24T12:28:30;100480.56;;;22.85;34.65
66560;BME280;53413;49.878;8.142;2023-05-24T12:30:56;100475.38;;;23.37;33.85
66560;BME280;53413;49.878;8.142;2023-05-24T12:33:22;100476.81;;;23.93;33.82
66560;BME280;53413;49.878;8.142;2023-05-24T12:35:47;100481.91;;;24.27;33.04
66560;BME280;53413;49.878;8.142;2023-05-24T12:38:14;100475.41;;;24.30;32.46
66560;BME280;53413;49.878;8.142;2023-05-24T12:40:41;100478.34;;;24.17;32.71
66560;BME280;53413;49.878;8.142;2023-05-24T12:43:08;100483.50;;;23.78;33.03
66560;BME280;53413;49.878;8.142;2023-05-24T12:45:34;100481.84;;;23.56;33.44
66560;BME280;53413;49.878;8.142;2023-05-24T12:48:01;100485.44;;;23.45;33.43
66560;BME280;53413;49.878;8.142;2023-05-24T12:50:29;100482.81;;;23.33;33.00
66560;BME280;53413;49.878;8.142;2023-05-24T12:52:55;100475.84;;;23.42;33.07
66560;BME280;53413;49.878;8.142;2023-05-24T12:55:24;100482.66;;;23.14;33.44
66560;BME280;53413;49.878;8.142;2023-05-24T12:57:50;100483.31;;;22.62;34.30
66560;BME280;53413;49.878;8.142;2023-05-24T13:00:21;100473.75;;;22.25;35.24